sim
Sign-in with your pilot id or email,
or register
Callsign
Passwort

Schedule Details

Flight Number: OEO1761
Departure: Olbia Costa Smeralda Airport (LIEO) at 19:30
Arrival: Munich Airport (EDDM) at 21:15

Weather Information
Getting current METAR information for LIEO 250720Z 23013KT 9999 FEW020TCU SCT040 23/17 Q1004
Getting current METAR information for EDDM 250720Z 28017G27KT 4500 SHRA FEW008 SCT020CB BKN040 11/09 Q1001 BECMG 25010KT 7000 NSW

Schedule Frequency

Route Map